sensor_id;sensor_type;location;lat;lon;timestamp;pressure;altitude;pressure_sealevel;temperature;humidity
19457;BME280;9867;48.094;11.478;2022-12-01T00:01:18;95508.94;;;2.47;100.00
19457;BME280;9867;48.094;11.478;2022-12-01T00:03:46;95514.66;;;2.49;100.00
19457;BME280;9867;48.094;11.478;2022-12-01T00:06:15;95505.75;;;2.45;100.00
19457;BME280;9867;48.094;11.478;2022-12-01T00:08:45;95494.41;;;2.39;100.00
19457;BME280;9867;48.094;11.478;2022-12-01T00:11:27;95503.06;;;2.56;100.00
19457;BME280;9867;48.094;11.478;2022-12-01T00:13:55;95492.81;;;2.48;100.00
19457;BME280;9867;48.094;11.478;2022-12-01T00:16:24;95494.13;;;2.52;100.00
19457;BME280;9867;48.094;11.478;2022-12-01T00:18:52;95496.19;;;2.66;100.00
19457;BME280;9867;48.094;11.478;2022-12-01T00:21:21;95486.75;;;2.68;100.00
19457;BME280;9867;48.094;11.478;2022-12-01T00:23:51;95483.78;;;2.73;100.00
19457;BME280;9867;48.094;11.478;2022-12-01T00:26:20;95486.88;;;2.67;100.00
19457;BME280;9867;48.094;11.478;2022-12-01T00:28:48;95489.72;;;2.54;100.00
19457;BME280;9867;48.094;11.478;2022-12-01T00:31:17;95486.31;;;2.36;100.00
19457;BME280;9867;48.094;11.478;2022-12-01T00:33:46;95487.34;;;2.43;100.00
19457;BME280;9867;48.094;11.478;2022-12-01T00:36:14;95489.09;;;2.43;100.00
19457;BME280;9867;48.094;11.478;2022-12-01T00:38:42;95477.13;;;2.35;100.00
19457;BME280;9867;48.094;11.478;2022-12-01T00:41:10;95488.78;;;2.55;100.00
19457;BME280;9867;48.094;11.478;2022-12-01T00:43:37;95489.34;;;2.39;100.00
19457;BME280;9867;48.094;11.478;2022-12-01T00:46:06;95489.47;;;2.57;100.00
19457;BME280;9867;48.094;11.478;2022-12-01T00:48:34;95489.22;;;2.41;100.00
19457;BME280;9867;48.094;11.478;2022-12-01T00:51:03;95491.34;;;2.46;100.00
19457;BME280;9867;48.094;11.478;2022-12-01T00:53:31;95488.06;;;2.26;100.00
19457;BME280;9867;48.094;11.478;2022-12-01T00:55:59;95490.41;;;2.47;100.00
19457;BME280;9867;48.094;11.478;2022-12-01T00:58:27;95484.44;;;2.38;100.00
19457;BME280;9867;48.094;11.478;2022-12-01T01:00:59;95490.88;;;2.23;100.00
19457;BME280;9867;48.094;11.478;2022-12-01T01:03:28;95492.19;;;2.27;100.00
19457;BME280;9867;48.094;11.478;2022-12-01T01:06:04;95486.97;;;2.38;100.00
19457;BME280;9867;48.094;11.478;2022-12-01T01:08:32;95485.44;;;2.08;100.00
19457;BME280;9867;48.094;11.478;2022-12-01T01:11:00;95488.34;;;2.13;100.00
19457;BME280;9867;48.094;11.478;2022-12-01T01:13:28;95479.03;;;2.14;100.00
19457;BME280;9867;48.094;11.478;2022-12-01T01:15:57;95476.75;;;2.20;100.00
19457;BME280;9867;48.094;11.478;2022-12-01T01:18:26;95487.16;;;2.17;100.00
19457;BME280;9867;48.094;11.478;2022-12-01T01:20:55;95493.75;;;2.37;100.00
19457;BME280;9867;48.094;11.478;2022-12-01T01:23:25;95484.16;;;2.41;100.00
19457;BME280;9867;48.094;11.478;2022-12-01T01:25:53;95486.28;;;2.46;100.00
19457;BME280;9867;48.094;11.478;2022-12-01T01:28:21;95483.34;;;2.50;100.00
19457;BME280;9867;48.094;11.478;2022-12-01T01:30:48;95484.56;;;2.36;100.00
19457;BME280;9867;48.094;11.478;2022-12-01T01:33:16;95479.66;;;2.35;100.00
19457;BME280;9867;48.094;11.478;2022-12-01T01:35:44;95483.41;;;2.31;100.00
19457;BME280;9867;48.094;11.478;2022-12-01T01:38:12;95481.28;;;2.63;100.00
19457;BME280;9867;48.094;11.478;2022-12-01T01:40:45;95490.41;;;2.56;100.00
19457;BME280;9867;48.094;11.478;2022-12-01T01:43:14;95490.91;;;2.60;100.00
19457;BME280;9867;48.094;11.478;2022-12-01T01:45:43;95498.00;;;2.56;100.00
19457;BME280;9867;48.094;11.478;2022-12-01T01:48:12;95492.34;;;2.62;100.00
19457;BME280;9867;48.094;11.478;2022-12-01T01:50:40;95494.13;;;2.52;100.00
19457;BME280;9867;48.094;11.478;2022-12-01T01:53:11;95500.41;;;2.48;100.00
19457;BME280;9867;48.094;11.478;2022-12-01T01:55:39;95492.16;;;2.36;100.00
19457;BME280;9867;48.094;11.478;2022-12-01T01:58:09;95495.66;;;2.72;100.00
19457;BME280;9867;48.094;11.478;2022-12-01T02:00:40;95499.06;;;2.44;100.00
19457;BME280;9867;48.094;11.478;2022-12-01T02:03:12;95495.03;;;2.61;100.00
19457;BME280;9867;48.094;11.478;2022-12-01T02:05:41;95496.63;;;2.62;100.00
19457;BME280;9867;48.094;11.478;2022-12-01T02:08:10;95494.88;;;2.62;100.00
19457;BME280;9867;48.094;11.478;2022-12-01T02:10:52;95492.59;;;2.32;100.00
19457;BME280;9867;48.094;11.478;2022-12-01T02:13:30;95491.34;;;2.46;100.00
19457;BME280;9867;48.094;11.478;2022-12-01T02:16:06;95486.25;;;2.55;100.00
19457;BME280;9867;48.094;11.478;2022-12-01T02:18:43;95479.22;;;2.39;100.00
19457;BME280;9867;48.094;11.478;2022-12-01T02:27:27;95481.75;;;2.39;100.00
19457;BME280;9867;48.094;11.478;2022-12-01T02:30:04;95484.81;;;2.43;100.00
19457;BME280;9867;48.094;11.478;2022-12-01T02:32:43;95491.00;;;2.21;100.00
19457;BME280;9867;48.094;11.478;2022-12-01T02:35:17;95489.28;;;2.22;100.00
19457;BME280;9867;48.094;11.478;2022-12-01T02:37:53;95486.28;;;2.46;100.00
19457;BME280;9867;48.094;11.478;2022-12-01T02:40:27;95494.34;;;2.22;100.00
19457;BME280;9867;48.094;11.478;2022-12-01T02:43:01;95493.56;;;2.12;100.00
19457;BME280;9867;48.094;11.478;2022-12-01T02:45:35;95487.72;;;2.11;100.00
19457;BME280;9867;48.094;11.478;2022-12-01T02:48:11;95478.47;;;2.20;100.00
19457;BME280;9867;48.094;11.478;2022-12-01T02:50:41;95476.78;;;2.11;100.00
19457;BME280;9867;48.094;11.478;2022-12-01T02:53:12;95478.09;;;2.24;100.00
19457;BME280;9867;48.094;11.478;2022-12-01T02:55:46;95474.38;;;2.09;100.00
19457;BME280;9867;48.094;11.478;2022-12-01T02:58:15;95467.19;;;2.04;100.00
19457;BME280;9867;48.094;11.478;2022-12-01T03:00:54;95470.50;;;2.24;100.00
19457;BME280;9867;48.094;11.478;2022-12-01T03:03:37;95470.41;;;2.07;100.00
19457;BME280;9867;48.094;11.478;2022-12-01T03:06:13;95469.28;;;2.28;100.00
19457;BME280;9867;48.094;11.478;2022-12-01T03:08:49;95469.16;;;2.30;100.00
19457;BME280;9867;48.094;11.478;2022-12-01T03:11:23;95475.44;;;2.16;100.00
19457;BME280;9867;48.094;11.478;2022-12-01T03:14:07;95473.00;;;2.34;100.00
19457;BME280;9867;48.094;11.478;2022-12-01T03:16:44;95474.34;;;2.28;100.00
19457;BME280;9867;48.094;11.478;2022-12-01T03:19:22;95461.44;;;2.22;100.00
19457;BME280;9867;48.094;11.478;2022-12-01T03:21:57;95475.47;;;2.07;100.00
19457;BME280;9867;48.094;11.478;2022-12-01T03:24:28;95457.88;;;1.95;100.00
19457;BME280;9867;48.094;11.478;2022-12-01T03:26:59;95451.75;;;1.98;100.00
19457;BME280;9867;48.094;11.478;2022-12-01T03:29:31;95459.06;;;2.11;100.00
19457;BME280;9867;48.094;11.478;2022-12-01T03:32:03;95446.28;;;2.12;100.00
19457;BME280;9867;48.094;11.478;2022-12-01T03:34:37;95453.56;;;2.25;100.00
19457;BME280;9867;48.094;11.478;2022-12-01T03:37:11;95461.00;;;2.36;100.00
19457;BME280;9867;48.094;11.478;2022-12-01T03:39:40;95456.09;;;2.25;100.00
19457;BME280;9867;48.094;11.478;2022-12-01T03:42:14;95464.34;;;2.27;100.00
19457;BME280;9867;48.094;11.478;2022-12-01T03:44:46;95466.97;;;2.45;100.00
19457;BME280;9867;48.094;11.478;2022-12-01T03:47:16;95468.97;;;2.78;100.00
19457;BME280;9867;48.094;11.478;2022-12-01T03:49:49;95466.53;;;2.59;100.00
19457;BME280;9867;48.094;11.478;2022-12-01T03:52:26;95476.00;;;2.57;100.00
19457;BME280;9867;48.094;11.478;2022-12-01T03:55:05;95470.09;;;2.29;100.00
19457;BME280;9867;48.094;11.478;2022-12-01T03:57:41;95470.56;;;2.42;100.00
19457;BME280;9867;48.094;11.478;2022-12-01T04:00:12;95473.50;;;2.37;100.00
19457;BME280;9867;48.094;11.478;2022-12-01T04:02:40;95464.03;;;2.49;100.00
19457;BME280;9867;48.094;11.478;2022-12-01T04:05:11;95470.28;;;2.45;100.00
19457;BME280;9867;48.094;11.478;2022-12-01T04:07:40;95469.09;;;2.39;100.00
19457;BME280;9867;48.094;11.478;2022-12-01T04:10:08;95468.22;;;2.31;100.00
19457;BME280;9867;48.094;11.478;2022-12-01T04:12:36;95481.22;;;2.46;100.00
19457;BME280;9867;48.094;11.478;2022-12-01T04:15:04;95478.88;;;2.34;100.00
19457;BME280;9867;48.094;11.478;2022-12-01T04:17:33;95477.88;;;2.55;100.00
19457;BME280;9867;48.094;11.478;2022-12-01T04:20:03;95474.00;;;2.51;100.00
19457;BME280;9867;48.094;11.478;2022-12-01T04:22:33;95467.28;;;2.32;100.00
19457;BME280;9867;48.094;11.478;2022-12-01T04:25:01;95472.09;;;2.16;100.00
19457;BME280;9867;48.094;11.478;2022-12-01T04:27:29;95468.75;;;2.25;100.00
19457;BME280;9867;48.094;11.478;2022-12-01T04:29:57;95472.63;;;2.19;100.00
19457;BME280;9867;48.094;11.478;2022-12-01T04:32:25;95466.38;;;2.23;100.00
19457;BME280;9867;48.094;11.478;2022-12-01T04:34:53;95469.44;;;2.17;100.00
19457;BME280;9867;48.094;11.478;2022-12-01T04:37:20;95469.03;;;2.22;100.00
19457;BME280;9867;48.094;11.478;2022-12-01T04:39:50;95467.16;;;2.24;100.00
19457;BME280;9867;48.094;11.478;2022-12-01T04:42:18;95467.66;;;2.37;100.00
19457;BME280;9867;48.094;11.478;2022-12-01T04:44:45;95468.31;;;2.39;100.00
19457;BME280;9867;48.094;11.478;2022-12-01T04:47:13;95470.41;;;2.53;100.00
19457;BME280;9867;48.094;11.478;2022-12-01T04:49:41;95461.75;;;2.46;100.00
19457;BME280;9867;48.094;11.478;2022-12-01T04:52:09;95466.47;;;2.31;100.00
19457;BME280;9867;48.094;11.478;2022-12-01T04:54:37;95466.03;;;2.46;100.00
19457;BME280;9867;48.094;11.478;2022-12-01T04:57:06;95462.38;;;2.21;100.00
19457;BME280;9867;48.094;11.478;2022-12-01T04:59:34;95464.50;;;2.16;100.00
19457;BME280;9867;48.094;11.478;2022-12-01T05:02:01;95467.59;;;2.10;100.00
19457;BME280;9867;48.094;11.478;2022-12-01T05:04:29;95472.53;;;2.11;100.00
19457;BME280;9867;48.094;11.478;2022-12-01T05:06:59;95464.22;;;2.19;100.00
19457;BME280;9867;48.094;11.478;2022-12-01T05:09:27;95469.34;;;2.09;100.00
19457;BME280;9867;48.094;11.478;2022-12-01T05:11:55;95473.03;;;2.24;100.00
19457;BME280;9867;48.094;11.478;2022-12-01T05:14:24;95477.53;;;2.30;100.00
19457;BME280;9867;48.094;11.478;2022-12-01T05:16:52;95476.19;;;2.36;100.00
19457;BME280;9867;48.094;11.478;2022-12-01T05:19:20;95483.75;;;2.46;100.00
19457;BME280;9867;48.094;11.478;2022-12-01T05:22:05;95477.28;;;2.24;100.00
19457;BME280;9867;48.094;11.478;2022-12-01T05:24:33;95475.16;;;2.19;100.00
19457;BME280;9867;48.094;11.478;2022-12-01T05:27:01;95480.47;;;2.16;100.00
19457;BME280;9867;48.094;11.478;2022-12-01T05:29:30;95473.31;;;2.12;100.00
19457;BME280;9867;48.094;11.478;2022-12-01T05:31:59;95477.56;;;2.21;100.00
19457;BME280;9867;48.094;11.478;2022-12-01T05:34:28;95480.22;;;2.19;100.00
19457;BME280;9867;48.094;11.478;2022-12-01T05:36:56;95477.75;;;2.37;100.00
19457;BME280;9867;48.094;11.478;2022-12-01T05:39:24;95483.41;;;2.31;100.00
19457;BME280;9867;48.094;11.478;2022-12-01T05:41:52;95474.63;;;2.25;100.00
19457;BME280;9867;48.094;11.478;2022-12-01T05:44:20;95472.22;;;2.24;100.00
19457;BME280;9867;48.094;11.478;2022-12-01T05:46:49;95457.75;;;2.53;100.00
19457;BME280;9867;48.094;11.478;2022-12-01T05:49:17;95475.56;;;2.61;100.00
19457;BME280;9867;48.094;11.478;2022-12-01T05:51:45;95468.41;;;2.57;100.00
19457;BME280;9867;48.094;11.478;2022-12-01T05:54:14;95472.03;;;2.45;100.00
19457;BME280;9867;48.094;11.478;2022-12-01T05:56:42;95473.75;;;2.44;100.00
19457;BME280;9867;48.094;11.478;2022-12-01T05:59:10;95472.81;;;2.45;100.00
19457;BME280;9867;48.094;11.478;2022-12-01T06:01:38;95481.34;;;2.44;100.00
19457;BME280;9867;48.094;11.478;2022-12-01T06:04:07;95474.16;;;2.49;100.00
19457;BME280;9867;48.094;11.478;2022-12-01T06:06:35;95478.56;;;2.37;100.00
19457;BME280;9867;48.094;11.478;2022-12-01T06:09:03;95474.34;;;2.28;100.00
19457;BME280;9867;48.094;11.478;2022-12-01T06:11:31;95482.94;;;2.45;100.00
19457;BME280;9867;48.094;11.478;2022-12-01T06:13:59;95487.19;;;2.54;100.00
19457;BME280;9867;48.094;11.478;2022-12-01T06:16:26;95490.53;;;2.55;100.00
19457;BME280;9867;48.094;11.478;2022-12-01T06:18:54;95482.00;;;2.56;100.00
19457;BME280;9867;48.094;11.478;2022-12-01T06:21:23;95486.97;;;2.38;100.00
19457;BME280;9867;48.094;11.478;2022-12-01T06:23:51;95484.44;;;2.38;100.00
19457;BME280;9867;48.094;11.478;2022-12-01T06:26:20;95490.44;;;2.37;100.00
19457;BME280;9867;48.094;11.478;2022-12-01T06:28:48;95483.94;;;2.34;100.00
19457;BME280;9867;48.094;11.478;2022-12-01T06:31:15;95489.47;;;2.48;100.00
19457;BME280;9867;48.094;11.478;2022-12-01T06:33:43;95490.72;;;2.34;100.00
19457;BME280;9867;48.094;11.478;2022-12-01T06:36:11;95492.28;;;2.45;100.00
19457;BME280;9867;48.094;11.478;2022-12-01T06:38:40;95505.59;;;2.56;100.00
19457;BME280;9867;48.094;11.478;2022-12-01T06:41:08;95504.13;;;2.44;100.00
19457;BME280;9867;48.094;11.478;2022-12-01T06:43:36;95502.59;;;2.33;100.00
19457;BME280;9867;48.094;11.478;2022-12-01T06:46:04;95501.59;;;2.54;100.00
19457;BME280;9867;48.094;11.478;2022-12-01T06:48:32;95503.47;;;2.52;100.00
19457;BME280;9867;48.094;11.478;2022-12-01T06:51:01;95502.53;;;2.43;100.00
19457;BME280;9867;48.094;11.478;2022-12-01T06:53:29;95502.00;;;2.39;100.00
19457;BME280;9867;48.094;11.478;2022-12-01T06:55:59;95499.34;;;2.41;100.00
19457;BME280;9867;48.094;11.478;2022-12-01T06:58:28;95504.41;;;2.51;100.00
19457;BME280;9867;48.094;11.478;2022-12-01T07:00:58;95501.19;;;2.49;100.00
19457;BME280;9867;48.094;11.478;2022-12-01T07:03:26;95509.06;;;2.55;100.00
19457;BME280;9867;48.094;11.478;2022-12-01T07:05:55;95517.53;;;2.64;100.00
19457;BME280;9867;48.094;11.478;2022-12-01T07:08:24;95506.38;;;2.57;100.00
19457;BME280;9867;48.094;11.478;2022-12-01T07:10:56;95520.19;;;2.72;100.00
19457;BME280;9867;48.094;11.478;2022-12-01T07:13:26;95515.59;;;4.11;100.00
19457;BME280;9867;48.094;11.478;2022-12-01T07:15:59;95519.44;;;4.93;100.00
19457;BME280;9867;48.094;11.478;2022-12-01T07:18:27;95527.47;;;5.22;100.00
19457;BME280;9867;48.094;11.478;2022-12-01T07:20:58;95518.88;;;5.65;100.00
19457;BME280;9867;48.094;11.478;2022-12-01T07:23:26;95525.25;;;5.77;100.00
19457;BME280;9867;48.094;11.478;2022-12-01T07:25:58;95530.97;;;5.71;100.00
19457;BME280;9867;48.094;11.478;2022-12-01T07:28:27;95530.53;;;5.84;100.00
19457;BME280;9867;48.094;11.478;2022-12-01T07:31:01;95535.41;;;5.69;100.00
19457;BME280;9867;48.094;11.478;2022-12-01T07:33:29;95536.06;;;5.71;100.00
19457;BME280;9867;48.094;11.478;2022-12-01T07:35:58;95532.53;;;5.56;100.00
19457;BME280;9867;48.094;11.478;2022-12-01T07:38:26;95539.47;;;5.38;100.00
19457;BME280;9867;48.094;11.478;2022-12-01T07:41:00;95539.31;;;5.98;100.00
19457;BME280;9867;48.094;11.478;2022-12-01T07:43:30;95537.63;;;5.56;100.00
19457;BME280;9867;48.094;11.478;2022-12-01T07:46:05;95539.56;;;5.62;100.00
19457;BME280;9867;48.094;11.478;2022-12-01T07:48:34;95547.28;;;5.44;100.00
19457;BME280;9867;48.094;11.478;2022-12-01T07:51:03;95542.00;;;5.96;100.00
19457;BME280;9867;48.094;11.478;2022-12-01T07:53:31;95546.00;;;5.99;100.00
19457;BME280;9867;48.094;11.478;2022-12-01T07:55:59;95533.44;;;6.05;100.00
19457;BME280;9867;48.094;11.478;2022-12-01T07:58:35;95539.84;;;5.67;100.00
19457;BME280;9867;48.094;11.478;2022-12-01T08:01:08;95543.47;;;6.07;100.00
19457;BME280;9867;48.094;11.478;2022-12-01T08:03:37;95546.09;;;5.81;100.00
19457;BME280;9867;48.094;11.478;2022-12-01T08:06:07;95547.19;;;5.62;100.00
19457;BME280;9867;48.094;11.478;2022-12-01T08:08:39;95544.81;;;5.77;100.00
19457;BME280;9867;48.094;11.478;2022-12-01T08:11:09;95545.63;;;5.77;100.00
19457;BME280;9867;48.094;11.478;2022-12-01T08:13:40;95549.84;;;6.11;100.00
19457;BME280;9867;48.094;11.478;2022-12-01T08:16:11;95555.31;;;5.74;100.00
19457;BME280;9867;48.094;11.478;2022-12-01T08:18:40;95562.56;;;6.11;100.00
19457;BME280;9867;48.094;11.478;2022-12-01T08:21:10;95559.22;;;6.19;100.00
19457;BME280;9867;48.094;11.478;2022-12-01T08:23:38;95571.31;;;6.16;100.00
19457;BME280;9867;48.094;11.478;2022-12-01T08:26:09;95561.16;;;6.33;100.00
19457;BME280;9867;48.094;11.478;2022-12-01T08:28:41;95562.09;;;6.32;100.00
19457;BME280;9867;48.094;11.478;2022-12-01T08:31:11;95553.97;;;6.04;100.00
19457;BME280;9867;48.094;11.478;2022-12-01T08:33:39;95558.94;;;5.55;100.00
19457;BME280;9867;48.094;11.478;2022-12-01T08:36:07;95562.63;;;5.27;100.00
19457;BME280;9867;48.094;11.478;2022-12-01T08:38:35;95546.56;;;5.76;100.00
19457;BME280;9867;48.094;11.478;2022-12-01T08:41:05;95559.84;;;5.38;100.00
19457;BME280;9867;48.094;11.478;2022-12-01T08:43:33;95552.84;;;5.48;100.00
19457;BME280;9867;48.094;11.478;2022-12-01T08:46:28;95563.34;;;5.45;100.00
19457;BME280;9867;48.094;11.478;2022-12-01T08:48:57;95562.69;;;5.35;100.00
19457;BME280;9867;48.094;11.478;2022-12-01T08:51:25;95558.75;;;6.07;100.00
19457;BME280;9867;48.094;11.478;2022-12-01T08:53:54;95558.25;;;5.95;100.00
19457;BME280;9867;48.094;11.478;2022-12-01T08:56:24;95557.81;;;5.58;100.00
19457;BME280;9867;48.094;11.478;2022-12-01T08:58:53;95553.25;;;5.19;100.00
19457;BME280;9867;48.094;11.478;2022-12-01T09:01:27;95548.41;;;5.50;100.00
19457;BME280;9867;48.094;11.478;2022-12-01T09:03:55;95548.66;;;5.81;100.00
19457;BME280;9867;48.094;11.478;2022-12-01T09:06:34;95546.59;;;5.85;100.00
19457;BME280;9867;48.094;11.478;2022-12-01T09:09:04;95557.28;;;5.38;100.00
19457;BME280;9867;48.094;11.478;2022-12-01T09:11:32;95556.13;;;4.90;100.00
19457;BME280;9867;48.094;11.478;2022-12-01T09:14:00;95560.41;;;5.24;100.00
19457;BME280;9867;48.094;11.478;2022-12-01T09:16:29;95561.00;;;5.60;100.00
19457;BME280;9867;48.094;11.478;2022-12-01T09:18:57;95553.97;;;5.03;100.00
19457;BME280;9867;48.094;11.478;2022-12-01T09:21:26;95560.41;;;5.24;100.00
19457;BME280;9867;48.094;11.478;2022-12-01T09:23:56;95552.09;;;5.56;100.00
19457;BME280;9867;48.094;11.478;2022-12-01T09:26:25;95558.69;;;5.82;100.00
19457;BME280;9867;48.094;11.478;2022-12-01T09:28:55;95560.97;;;6.10;100.00
19457;BME280;9867;48.094;11.478;2022-12-01T09:31:23;95571.31;;;6.49;100.00
19457;BME280;9867;48.094;11.478;2022-12-01T09:33:57;95560.03;;;6.35;100.00
19457;BME280;9867;48.094;11.478;2022-12-01T09:36:27;95571.03;;;6.36;100.00
19457;BME280;9867;48.094;11.478;2022-12-01T09:38:55;95566.84;;;6.19;100.00
19457;BME280;9867;48.094;11.478;2022-12-01T09:41:27;95564.25;;;5.86;100.00
19457;BME280;9867;48.094;11.478;2022-12-01T09:44:00;95566.44;;;4.89;100.00
19457;BME280;9867;48.094;11.478;2022-12-01T09:46:35;95560.75;;;4.43;100.00
19457;BME280;9867;48.094;11.478;2022-12-01T09:49:15;95551.78;;;4.13;100.00
19457;BME280;9867;48.094;11.478;2022-12-01T09:51:44;95559.72;;;3.92;100.00
19457;BME280;9867;48.094;11.478;2022-12-01T09:54:13;95545.56;;;3.90;100.00
19457;BME280;9867;48.094;11.478;2022-12-01T09:56:43;95538.38;;;3.85;100.00
19457;BME280;9867;48.094;11.478;2022-12-01T09:59:16;95533.97;;;3.87;100.00
19457;BME280;9867;48.094;11.478;2022-12-01T10:01:48;95531.84;;;3.83;100.00
19457;BME280;9867;48.094;11.478;2022-12-01T10:04:24;95528.88;;;3.69;100.00
19457;BME280;9867;48.094;11.478;2022-12-01T10:06:59;95527.63;;;3.56;100.00
19457;BME280;9867;48.094;11.478;2022-12-01T10:09:33;95526.47;;;3.50;100.00
19457;BME280;9867;48.094;11.478;2022-12-01T10:12:09;95527.47;;;3.57;100.00
19457;BME280;9867;48.094;11.478;2022-12-01T10:14:40;95526.81;;;3.55;100.00
19457;BME280;9867;48.094;11.478;2022-12-01T10:17:15;95516.69;;;3.55;100.00
19457;BME280;9867;48.094;11.478;2022-12-01T10:19:53;95519.53;;;3.52;100.00
19457;BME280;9867;48.094;11.478;2022-12-01T10:22:39;95517.31;;;3.39;100.00
19457;BME280;9867;48.094;11.478;2022-12-01T10:25:19;95511.69;;;3.63;100.00
19457;BME280;9867;48.094;11.478;2022-12-01T10:27:59;95509.75;;;3.75;100.00
19457;BME280;9867;48.094;11.478;2022-12-01T10:30:32;95509.00;;;3.83;100.00
19457;BME280;9867;48.094;11.478;2022-12-01T10:33:12;95505.03;;;3.80;100.00
19457;BME280;9867;48.094;11.478;2022-12-01T10:35:45;95507.22;;;3.75;100.00
19457;BME280;9867;48.094;11.478;2022-12-01T10:38:21;95510.41;;;3.77;100.00
19457;BME280;9867;48.094;11.478;2022-12-01T10:40:50;95505.69;;;3.82;100.00
19457;BME280;9867;48.094;11.478;2022-12-01T10:43:26;95502.47;;;3.80;100.00
19457;BME280;9867;48.094;11.478;2022-12-01T10:45:57;95509.63;;;3.76;100.00
19457;BME280;9867;48.094;11.478;2022-12-01T10:48:27;95494.97;;;3.70;100.00
19457;BME280;9867;48.094;11.478;2022-12-01T10:51:13;95492.66;;;3.77;100.00
19457;BME280;9867;48.094;11.478;2022-12-01T10:53:41;95492.06;;;3.65;100.00
19457;BME280;9867;48.094;11.478;2022-12-01T10:56:12;95479.53;;;3.46;100.00
19457;BME280;9867;48.094;11.478;2022-12-01T10:58:44;95490.59;;;3.45;100.00
19457;BME280;9867;48.094;11.478;2022-12-01T11:01:21;95491.41;;;3.46;100.00
19457;BME280;9867;48.094;11.478;2022-12-01T11:03:53;95477.31;;;3.33;100.00
19457;BME280;9867;48.094;11.478;2022-12-01T11:06:29;95482.19;;;3.45;100.00
19457;BME280;9867;48.094;11.478;2022-12-01T11:08:59;95484.50;;;3.56;100.00
19457;BME280;9867;48.094;11.478;2022-12-01T11:11:30;95485.69;;;3.43;100.00
19457;BME280;9867;48.094;11.478;2022-12-01T11:14:01;95482.41;;;3.33;100.00
19457;BME280;9867;48.094;11.478;2022-12-01T11:16:39;95484.88;;;3.43;100.00
19457;BME280;9867;48.094;11.478;2022-12-01T11:19:19;95481.03;;;3.57;100.00
19457;BME280;9867;48.094;11.478;2022-12-01T11:21:56;95481.34;;;3.54;100.00
19457;BME280;9867;48.094;11.478;2022-12-01T11:24:32;95479.44;;;3.56;100.00
19457;BME280;9867;48.094;11.478;2022-12-01T11:27:14;95489.66;;;3.46;100.00
19457;BME280;9867;48.094;11.478;2022-12-01T11:29:45;95484.31;;;3.49;100.00
19457;BME280;9867;48.094;11.478;2022-12-01T11:32:20;95476.69;;;3.49;100.00
19457;BME280;9867;48.094;11.478;2022-12-01T11:34:52;95468.63;;;3.36;100.00
19457;BME280;9867;48.094;11.478;2022-12-01T11:37:26;95473.19;;;3.32;100.00
19457;BME280;9867;48.094;11.478;2022-12-01T11:40:04;95475.94;;;3.21;100.00
19457;BME280;9867;48.094;11.478;2022-12-01T11:42:33;95472.06;;;3.27;100.00
19457;BME280;9867;48.094;11.478;2022-12-01T11:45:06;95468.19;;;3.23;100.00
19457;BME280;9867;48.094;11.478;2022-12-01T11:48:03;95466.53;;;3.31;100.00
19457;BME280;9867;48.094;11.478;2022-12-01T11:50:33;95463.78;;;3.42;100.00
19457;BME280;9867;48.094;11.478;2022-12-01T11:53:03;95472.91;;;3.35;100.00
19457;BME280;9867;48.094;11.478;2022-12-01T11:55:31;95462.78;;;3.35;100.00
19457;BME280;9867;48.094;11.478;2022-12-01T11:58:00;95475.03;;;3.40;100.00
19457;BME280;9867;48.094;11.478;2022-12-01T12:00:47;95468.88;;;3.42;100.00
19457;BME280;9867;48.094;11.478;2022-12-01T12:03:19;95469.66;;;3.61;100.00
19457;BME280;9867;48.094;11.478;2022-12-01T12:06:12;95467.78;;;3.63;100.00
19457;BME280;9867;48.094;11.478;2022-12-01T12:09:19;95467.19;;;3.69;100.00
19457;BME280;9867;48.094;11.478;2022-12-01T12:11:56;95470.63;;;3.78;100.00
19457;BME280;9867;48.094;11.478;2022-12-01T12:14:35;95471.84;;;3.73;100.00
19457;BME280;9867;48.094;11.478;2022-12-01T12:17:21;95472.94;;;3.71;100.00
19457;BME280;9867;48.094;11.478;2022-12-01T12:20:26;95468.28;;;3.66;100.00
19457;BME280;9867;48.094;11.478;2022-12-01T12:23:11;95469.53;;;3.62;100.00
19457;BME280;9867;48.094;11.478;2022-12-01T12:25:53;95468.66;;;3.71;100.00
19457;BME280;9867;48.094;11.478;2022-12-01T12:28:35;95475.47;;;3.71;100.00
19457;BME280;9867;48.094;11.478;2022-12-01T12:31:10;95469.59;;;3.70;100.00
19457;BME280;9867;48.094;11.478;2022-12-01T12:33:55;95465.88;;;3.83;100.00
19457;BME280;9867;48.094;11.478;2022-12-01T12:36:34;95463.00;;;3.78;100.00
19457;BME280;9867;48.094;11.478;2022-12-01T12:39:18;95459.16;;;3.73;100.00
19457;BME280;9867;48.094;11.478;2022-12-01T12:41:53;95462.63;;;3.72;100.00
19457;BME280;9867;48.094;11.478;2022-12-01T12:44:45;95465.06;;;3.82;100.00
19457;BME280;9867;48.094;11.478;2022-12-01T12:47:29;95456.66;;;3.82;100.00
19457;BME280;9867;48.094;11.478;2022-12-01T12:50:10;95457.91;;;3.95;100.00
19457;BME280;9867;48.094;11.478;2022-12-01T12:52:44;95463.56;;;3.89;100.00
19457;BME280;9867;48.094;11.478;2022-12-01T12:55:14;95463.16;;;3.76;100.00
19457;BME280;9867;48.094;11.478;2022-12-01T12:57:51;95443.34;;;3.62;100.00
19457;BME280;9867;48.094;11.478;2022-12-01T13:00:23;95456.53;;;3.83;100.00
19457;BME280;9867;48.094;11.478;2022-12-01T13:02:55;95463.34;;;3.83;100.00
19457;BME280;9867;48.094;11.478;2022-12-01T13:05:25;95451.44;;;3.83;100.00
19457;BME280;9867;48.094;11.478;2022-12-01T13:08:00;95452.41;;;3.64;100.00
19457;BME280;9867;48.094;11.478;2022-12-01T13:10:35;95459.22;;;3.64;100.00
19457;BME280;9867;48.094;11.478;2022-12-01T13:13:13;95453.34;;;3.63;100.00
19457;BME280;9867;48.094;11.478;2022-12-01T13:15:46;95462.22;;;3.77;100.00
19457;BME280;9867;48.094;11.478;2022-12-01T13:18:24;95463.00;;;3.78;100.00
19457;BME280;9867;48.094;11.478;2022-12-01T13:20:54;95459.66;;;3.77;100.00
19457;BME280;9867;48.094;11.478;2022-12-01T13:23:24;95466.31;;;3.78;100.00
19457;BME280;9867;48.094;11.478;2022-12-01T13:25:54;95462.00;;;3.70;100.00
19457;BME280;9867;48.094;11.478;2022-12-01T13:28:27;95453.88;;;3.49;100.00
19457;BME280;9867;48.094;11.478;2022-12-01T13:31:03;95460.69;;;3.49;100.00